KDPA/DPA METAR and TAF weather

Enter ICAO airport designator
Station Type Date Time Source
KDPA METAR 2019/08/25 01:52 UTC NOAA

KDPA 250152Z 05005KT 10SM CLR 17/11 A3020 RMK AO2 SLP223 T01720106


Station Type Date Time Source
KDPA Decoded METAR 2019/08/25 01:52 UTC NOAA

Station name not available
Aug 24, 2019 - 09:52 PM EDT / 2019.08.25 0152 UTC
Wind: from the NE (050 degrees) at 6 MPH (5 KT):0
Visibility: 10 mile(s):0
Sky conditions: clear
Temperature: 63.0 F (17.2 C)
Dew Point: 51.1 F (10.6 C)
Relative Humidity: 65%
Pressure (altimeter): 30.2 in. Hg (1022 hPa)
ob: KDPA 250152Z 05005KT 10SM CLR 17/11 A3020 RMK AO2 SLP223 T01720106
cycle: 2

Station Type Date Time Source
KDPA TAF 2019/08/24 18:24 UTC NOAA

TAF KDPA 241722Z 2418/2518 09009KT P6SM FEW050 SCT300
FM250300 12005KT P6SM FEW300

Example: see airport list